sensor_id;sensor_type;location;lat;lon;timestamp;temperature;humidity
6940;DHT22;3509;48.510;9.076;2022-07-24T00:01:34;17.10;99.90
6940;DHT22;3509;48.510;9.076;2022-07-24T00:04:00;17.00;99.90
6940;DHT22;3509;48.510;9.076;2022-07-24T00:06:25;17.00;99.90
6940;DHT22;3509;48.510;9.076;2022-07-24T00:08:51;16.90;99.90
6940;DHT22;3509;48.510;9.076;2022-07-24T00:11:17;16.80;99.90
6940;DHT22;3509;48.510;9.076;2022-07-24T00:13:43;16.70;99.90
6940;DHT22;3509;48.510;9.076;2022-07-24T00:16:09;16.70;99.90
6940;DHT22;3509;48.510;9.076;2022-07-24T00:18:35;16.70;99.90
6940;DHT22;3509;48.510;9.076;2022-07-24T00:21:01;16.60;99.90
6940;DHT22;3509;48.510;9.076;2022-07-24T00:23:27;16.70;99.90
6940;DHT22;3509;48.510;9.076;2022-07-24T00:25:53;16.60;99.90
6940;DHT22;3509;48.510;9.076;2022-07-24T00:28:19;16.60;99.90
6940;DHT22;3509;48.510;9.076;2022-07-24T00:30:44;16.60;99.90
6940;DHT22;3509;48.510;9.076;2022-07-24T00:33:10;16.60;99.90
6940;DHT22;3509;48.510;9.076;2022-07-24T00:35:36;16.70;99.90
6940;DHT22;3509;48.510;9.076;2022-07-24T00:38:03;16.60;99.90
6940;DHT22;3509;48.510;9.076;2022-07-24T00:40:29;16.60;99.90
6940;DHT22;3509;48.510;9.076;2022-07-24T00:42:56;16.50;99.90
6940;DHT22;3509;48.510;9.076;2022-07-24T00:45:22;16.50;99.90
6940;DHT22;3509;48.510;9.076;2022-07-24T00:47:48;16.50;99.90
6940;DHT22;3509;48.510;9.076;2022-07-24T00:50:14;16.50;99.90
6940;DHT22;3509;48.510;9.076;2022-07-24T00:52:39;16.40;99.90
6940;DHT22;3509;48.510;9.076;2022-07-24T00:55:06;16.40;99.90
6940;DHT22;3509;48.510;9.076;2022-07-24T00:57:32;16.40;99.90
6940;DHT22;3509;48.510;9.076;2022-07-24T00:59:58;16.30;99.90
6940;DHT22;3509;48.510;9.076;2022-07-24T01:02:24;16.20;99.90
6940;DHT22;3509;48.510;9.076;2022-07-24T01:04:50;16.20;99.90
6940;DHT22;3509;48.510;9.076;2022-07-24T01:07:16;16.20;99.90
6940;DHT22;3509;48.510;9.076;2022-07-24T01:09:43;16.10;99.90
6940;DHT22;3509;48.510;9.076;2022-07-24T01:12:08;16.20;99.90
6940;DHT22;3509;48.510;9.076;2022-07-24T01:14:34;16.10;99.90
6940;DHT22;3509;48.510;9.076;2022-07-24T01:17:01;16.10;99.90
6940;DHT22;3509;48.510;9.076;2022-07-24T01:19:26;16.10;99.90
6940;DHT22;3509;48.510;9.076;2022-07-24T01:21:53;16.10;99.90
6940;DHT22;3509;48.510;9.076;2022-07-24T01:24:20;16.10;99.90
6940;DHT22;3509;48.510;9.076;2022-07-24T01:26:46;16.10;99.90
6940;DHT22;3509;48.510;9.076;2022-07-24T01:29:13;16.00;99.90
6940;DHT22;3509;48.510;9.076;2022-07-24T01:31:40;16.00;99.90
6940;DHT22;3509;48.510;9.076;2022-07-24T01:34:06;15.90;99.90
6940;DHT22;3509;48.510;9.076;2022-07-24T01:36:32;15.80;99.90
6940;DHT22;3509;48.510;9.076;2022-07-24T01:38:57;15.80;99.90
6940;DHT22;3509;48.510;9.076;2022-07-24T01:41:23;15.70;99.90
6940;DHT22;3509;48.510;9.076;2022-07-24T01:43:49;15.70;99.90
6940;DHT22;3509;48.510;9.076;2022-07-24T01:46:15;15.70;99.90
6940;DHT22;3509;48.510;9.076;2022-07-24T01:48:42;15.60;99.90
6940;DHT22;3509;48.510;9.076;2022-07-24T01:51:09;15.60;99.90
6940;DHT22;3509;48.510;9.076;2022-07-24T01:53:34;15.50;99.90
6940;DHT22;3509;48.510;9.076;2022-07-24T01:56:00;15.40;99.90
6940;DHT22;3509;48.510;9.076;2022-07-24T01:58:26;15.40;99.90
6940;DHT22;3509;48.510;9.076;2022-07-24T02:00:52;15.40;99.90
6940;DHT22;3509;48.510;9.076;2022-07-24T02:03:18;15.40;99.90
6940;DHT22;3509;48.510;9.076;2022-07-24T02:05:44;15.50;99.90
6940;DHT22;3509;48.510;9.076;2022-07-24T02:08:10;15.60;99.90
6940;DHT22;3509;48.510;9.076;2022-07-24T02:10:35;15.60;99.90
6940;DHT22;3509;48.510;9.076;2022-07-24T02:13:01;15.70;99.90
6940;DHT22;3509;48.510;9.076;2022-07-24T02:15:27;15.80;99.90
6940;DHT22;3509;48.510;9.076;2022-07-24T02:17:56;15.80;99.90
6940;DHT22;3509;48.510;9.076;2022-07-24T02:20:22;15.70;99.90
6940;DHT22;3509;48.510;9.076;2022-07-24T02:22:47;15.70;99.90
6940;DHT22;3509;48.510;9.076;2022-07-24T02:25:13;15.80;99.90
6940;DHT22;3509;48.510;9.076;2022-07-24T02:27:39;15.80;99.90
6940;DHT22;3509;48.510;9.076;2022-07-24T02:30:08;15.80;99.90
6940;DHT22;3509;48.510;9.076;2022-07-24T02:32:34;15.80;99.90
6940;DHT22;3509;48.510;9.076;2022-07-24T02:35:00;15.80;99.90
6940;DHT22;3509;48.510;9.076;2022-07-24T02:37:25;15.70;99.90
6940;DHT22;3509;48.510;9.076;2022-07-24T02:39:51;15.70;99.90
6940;DHT22;3509;48.510;9.076;2022-07-24T02:42:17;15.70;99.90
6940;DHT22;3509;48.510;9.076;2022-07-24T02:44:42;15.70;99.90
6940;DHT22;3509;48.510;9.076;2022-07-24T02:47:08;15.60;99.90
6940;DHT22;3509;48.510;9.076;2022-07-24T02:49:34;15.50;99.90
6940;DHT22;3509;48.510;9.076;2022-07-24T02:52:01;15.40;99.90
6940;DHT22;3509;48.510;9.076;2022-07-24T02:54:27;15.30;99.90
6940;DHT22;3509;48.510;9.076;2022-07-24T02:56:52;15.30;99.90
6940;DHT22;3509;48.510;9.076;2022-07-24T02:59:18;15.40;99.90
6940;DHT22;3509;48.510;9.076;2022-07-24T03:01:43;15.30;99.90
6940;DHT22;3509;48.510;9.076;2022-07-24T03:04:09;15.30;99.90
6940;DHT22;3509;48.510;9.076;2022-07-24T03:06:35;15.20;99.90
6940;DHT22;3509;48.510;9.076;2022-07-24T03:09:01;15.10;99.90
6940;DHT22;3509;48.510;9.076;2022-07-24T03:11:27;15.10;99.90
6940;DHT22;3509;48.510;9.076;2022-07-24T03:13:52;15.10;99.90
6940;DHT22;3509;48.510;9.076;2022-07-24T03:16:18;15.00;99.90
6940;DHT22;3509;48.510;9.076;2022-07-24T03:18:44;15.00;99.90
6940;DHT22;3509;48.510;9.076;2022-07-24T03:21:13;15.10;99.90
6940;DHT22;3509;48.510;9.076;2022-07-24T03:23:39;15.00;99.90
6940;DHT22;3509;48.510;9.076;2022-07-24T03:26:05;15.00;99.90
6940;DHT22;3509;48.510;9.076;2022-07-24T03:28:30;14.90;99.90
6940;DHT22;3509;48.510;9.076;2022-07-24T03:30:56;14.90;99.90
6940;DHT22;3509;48.510;9.076;2022-07-24T03:33:22;14.90;99.90
6940;DHT22;3509;48.510;9.076;2022-07-24T03:35:47;14.90;99.90
6940;DHT22;3509;48.510;9.076;2022-07-24T03:38:13;14.90;99.90
6940;DHT22;3509;48.510;9.076;2022-07-24T03:40:38;14.80;99.90
6940;DHT22;3509;48.510;9.076;2022-07-24T03:43:04;14.80;99.90
6940;DHT22;3509;48.510;9.076;2022-07-24T03:45:30;14.70;99.90
6940;DHT22;3509;48.510;9.076;2022-07-24T03:47:55;14.70;99.90
6940;DHT22;3509;48.510;9.076;2022-07-24T03:50:21;14.70;99.90
6940;DHT22;3509;48.510;9.076;2022-07-24T03:52:46;14.70;99.90
6940;DHT22;3509;48.510;9.076;2022-07-24T03:55:12;14.70;99.90
6940;DHT22;3509;48.510;9.076;2022-07-24T03:57:38;14.70;99.90
6940;DHT22;3509;48.510;9.076;2022-07-24T04:00:05;14.70;99.90
6940;DHT22;3509;48.510;9.076;2022-07-24T04:02:32;14.60;99.90
6940;DHT22;3509;48.510;9.076;2022-07-24T04:04:58;14.60;99.90
6940;DHT22;3509;48.510;9.076;2022-07-24T04:07:23;14.60;99.90
6940;DHT22;3509;48.510;9.076;2022-07-24T04:09:49;14.60;99.90
6940;DHT22;3509;48.510;9.076;2022-07-24T04:12:14;14.70;99.90
6940;DHT22;3509;48.510;9.076;2022-07-24T04:14:40;14.80;99.90
6940;DHT22;3509;48.510;9.076;2022-07-24T04:17:06;14.80;99.90
6940;DHT22;3509;48.510;9.076;2022-07-24T04:19:32;14.90;99.90
6940;DHT22;3509;48.510;9.076;2022-07-24T04:21:57;15.00;99.90
6940;DHT22;3509;48.510;9.076;2022-07-24T04:24:23;15.00;99.90
6940;DHT22;3509;48.510;9.076;2022-07-24T04:26:49;15.00;99.90
6940;DHT22;3509;48.510;9.076;2022-07-24T04:29:15;15.10;99.90
6940;DHT22;3509;48.510;9.076;2022-07-24T04:31:40;15.10;99.90
6940;DHT22;3509;48.510;9.076;2022-07-24T04:34:06;15.10;99.90
6940;DHT22;3509;48.510;9.076;2022-07-24T04:36:32;15.20;99.90
6940;DHT22;3509;48.510;9.076;2022-07-24T04:38:57;15.30;99.90
6940;DHT22;3509;48.510;9.076;2022-07-24T04:41:23;15.40;99.90
6940;DHT22;3509;48.510;9.076;2022-07-24T04:43:49;15.40;99.90
6940;DHT22;3509;48.510;9.076;2022-07-24T04:46:16;15.50;99.90
6940;DHT22;3509;48.510;9.076;2022-07-24T04:48:41;15.60;99.90
6940;DHT22;3509;48.510;9.076;2022-07-24T04:51:07;15.60;99.90
6940;DHT22;3509;48.510;9.076;2022-07-24T04:53:33;15.70;99.90
6940;DHT22;3509;48.510;9.076;2022-07-24T04:55:59;15.90;99.90
6940;DHT22;3509;48.510;9.076;2022-07-24T04:58:25;15.90;99.90
6940;DHT22;3509;48.510;9.076;2022-07-24T05:00:51;16.00;99.90
6940;DHT22;3509;48.510;9.076;2022-07-24T05:03:17;16.00;99.90
6940;DHT22;3509;48.510;9.076;2022-07-24T05:05:42;16.10;99.90
6940;DHT22;3509;48.510;9.076;2022-07-24T05:08:08;16.10;99.90
6940;DHT22;3509;48.510;9.076;2022-07-24T05:10:34;16.20;99.90
6940;DHT22;3509;48.510;9.076;2022-07-24T05:12:59;16.40;99.90
6940;DHT22;3509;48.510;9.076;2022-07-24T05:15:25;16.50;99.90
6940;DHT22;3509;48.510;9.076;2022-07-24T05:17:51;16.70;99.90
6940;DHT22;3509;48.510;9.076;2022-07-24T05:20:17;16.80;99.90
6940;DHT22;3509;48.510;9.076;2022-07-24T05:22:42;17.00;99.90
6940;DHT22;3509;48.510;9.076;2022-07-24T05:25:08;17.10;99.90
6940;DHT22;3509;48.510;9.076;2022-07-24T05:27:34;17.20;99.90
6940;DHT22;3509;48.510;9.076;2022-07-24T05:29:59;17.20;99.90
6940;DHT22;3509;48.510;9.076;2022-07-24T05:32:25;17.30;99.90
6940;DHT22;3509;48.510;9.076;2022-07-24T05:34:51;17.50;99.90
6940;DHT22;3509;48.510;9.076;2022-07-24T05:37:16;17.80;99.90
6940;DHT22;3509;48.510;9.076;2022-07-24T05:39:42;17.90;99.90
6940;DHT22;3509;48.510;9.076;2022-07-24T05:42:07;18.00;99.90
6940;DHT22;3509;48.510;9.076;2022-07-24T05:44:34;18.00;99.90
6940;DHT22;3509;48.510;9.076;2022-07-24T05:46:59;18.10;99.90
6940;DHT22;3509;48.510;9.076;2022-07-24T05:49:25;18.40;99.90
6940;DHT22;3509;48.510;9.076;2022-07-24T05:51:51;18.70;99.90
6940;DHT22;3509;48.510;9.076;2022-07-24T05:54:17;19.00;99.90
6940;DHT22;3509;48.510;9.076;2022-07-24T05:56:42;19.40;99.90
6940;DHT22;3509;48.510;9.076;2022-07-24T05:59:08;20.30;99.90
6940;DHT22;3509;48.510;9.076;2022-07-24T06:01:34;21.50;99.90
6940;DHT22;3509;48.510;9.076;2022-07-24T06:03:59;22.50;99.90
6940;DHT22;3509;48.510;9.076;2022-07-24T06:06:25;22.80;99.90
6940;DHT22;3509;48.510;9.076;2022-07-24T06:08:51;23.00;99.90
6940;DHT22;3509;48.510;9.076;2022-07-24T06:11:16;23.10;99.90
6940;DHT22;3509;48.510;9.076;2022-07-24T06:13:43;22.70;99.90
6940;DHT22;3509;48.510;9.076;2022-07-24T06:16:08;22.30;99.90
6940;DHT22;3509;48.510;9.076;2022-07-24T06:18:34;22.60;99.90
6940;DHT22;3509;48.510;9.076;2022-07-24T06:21:00;23.20;99.90
6940;DHT22;3509;48.510;9.076;2022-07-24T06:23:25;24.60;99.90
6940;DHT22;3509;48.510;9.076;2022-07-24T06:25:51;25.40;98.30
6940;DHT22;3509;48.510;9.076;2022-07-24T06:28:17;25.60;96.90
6940;DHT22;3509;48.510;9.076;2022-07-24T06:30:43;25.50;96.60
6940;DHT22;3509;48.510;9.076;2022-07-24T06:33:08;26.00;96.20
6940;DHT22;3509;48.510;9.076;2022-07-24T06:35:34;26.50;95.40
6940;DHT22;3509;48.510;9.076;2022-07-24T06:38:00;27.00;94.10
6940;DHT22;3509;48.510;9.076;2022-07-24T06:40:26;27.60;91.40
6940;DHT22;3509;48.510;9.076;2022-07-24T06:42:52;28.10;89.40
6940;DHT22;3509;48.510;9.076;2022-07-24T06:45:18;28.60;86.00
6940;DHT22;3509;48.510;9.076;2022-07-24T06:47:43;28.80;82.50
6940;DHT22;3509;48.510;9.076;2022-07-24T06:50:11;28.80;81.50
6940;DHT22;3509;48.510;9.076;2022-07-24T06:52:37;29.60;78.20
6940;DHT22;3509;48.510;9.076;2022-07-24T06:55:03;29.90;75.20
6940;DHT22;3509;48.510;9.076;2022-07-24T06:57:29;30.10;74.90
6940;DHT22;3509;48.510;9.076;2022-07-24T06:59:55;30.00;74.40
6940;DHT22;3509;48.510;9.076;2022-07-24T07:02:21;30.10;70.90
6940;DHT22;3509;48.510;9.076;2022-07-24T07:04:47;30.30;71.90
6940;DHT22;3509;48.510;9.076;2022-07-24T07:07:13;30.70;69.00
6940;DHT22;3509;48.510;9.076;2022-07-24T07:09:41;30.60;69.00
6940;DHT22;3509;48.510;9.076;2022-07-24T07:12:06;30.20;68.80
6940;DHT22;3509;48.510;9.076;2022-07-24T07:14:32;30.50;67.40
6940;DHT22;3509;48.510;9.076;2022-07-24T07:16:58;31.50;64.70
6940;DHT22;3509;48.510;9.076;2022-07-24T07:19:23;31.50;65.20
6940;DHT22;3509;48.510;9.076;2022-07-24T07:21:49;31.90;63.70
6940;DHT22;3509;48.510;9.076;2022-07-24T07:24:15;33.00;59.90
6940;DHT22;3509;48.510;9.076;2022-07-24T07:26:41;33.20;58.20
6940;DHT22;3509;48.510;9.076;2022-07-24T07:29:06;33.00;59.30
6940;DHT22;3509;48.510;9.076;2022-07-24T07:31:32;33.50;57.40
6940;DHT22;3509;48.510;9.076;2022-07-24T07:33:58;33.00;57.00
6940;DHT22;3509;48.510;9.076;2022-07-24T07:36:24;33.00;56.70
6940;DHT22;3509;48.510;9.076;2022-07-24T07:39:08;33.50;56.10
6940;DHT22;3509;48.510;9.076;2022-07-24T07:41:34;33.60;55.60
6940;DHT22;3509;48.510;9.076;2022-07-24T07:43:59;33.50;56.90
6940;DHT22;3509;48.510;9.076;2022-07-24T07:46:26;33.60;55.10
6940;DHT22;3509;48.510;9.076;2022-07-24T07:48:52;33.30;55.70
6940;DHT22;3509;48.510;9.076;2022-07-24T07:51:18;33.40;54.10
6940;DHT22;3509;48.510;9.076;2022-07-24T07:53:44;34.00;53.70
6940;DHT22;3509;48.510;9.076;2022-07-24T07:56:10;34.00;53.60
6940;DHT22;3509;48.510;9.076;2022-07-24T07:58:35;34.50;52.80
6940;DHT22;3509;48.510;9.076;2022-07-24T08:01:01;34.50;52.00
6940;DHT22;3509;48.510;9.076;2022-07-24T08:03:26;34.70;51.20
6940;DHT22;3509;48.510;9.076;2022-07-24T08:05:52;34.80;48.80
6940;DHT22;3509;48.510;9.076;2022-07-24T08:08:18;34.50;47.90
6940;DHT22;3509;48.510;9.076;2022-07-24T08:10:43;35.00;49.60
6940;DHT22;3509;48.510;9.076;2022-07-24T08:13:09;35.10;49.20
6940;DHT22;3509;48.510;9.076;2022-07-24T08:15:36;35.30;48.20
6940;DHT22;3509;48.510;9.076;2022-07-24T08:18:02;36.00;47.60
6940;DHT22;3509;48.510;9.076;2022-07-24T08:20:28;37.00;45.10
6940;DHT22;3509;48.510;9.076;2022-07-24T08:22:54;36.90;45.10
6940;DHT22;3509;48.510;9.076;2022-07-24T08:25:20;36.30;45.90
6940;DHT22;3509;48.510;9.076;2022-07-24T08:27:46;36.20;44.80
6940;DHT22;3509;48.510;9.076;2022-07-24T08:30:12;36.00;45.60
6940;DHT22;3509;48.510;9.076;2022-07-24T08:32:38;36.20;43.90
6940;DHT22;3509;48.510;9.076;2022-07-24T08:35:04;36.50;43.60
6940;DHT22;3509;48.510;9.076;2022-07-24T08:37:34;36.90;41.10
6940;DHT22;3509;48.510;9.076;2022-07-24T08:40:00;36.90;41.80
6940;DHT22;3509;48.510;9.076;2022-07-24T08:42:26;37.10;41.10
6940;DHT22;3509;48.510;9.076;2022-07-24T08:44:51;37.50;39.30
6940;DHT22;3509;48.510;9.076;2022-07-24T08:47:18;37.50;38.70
6940;DHT22;3509;48.510;9.076;2022-07-24T08:49:46;37.90;39.30
6940;DHT22;3509;48.510;9.076;2022-07-24T08:52:12;38.00;40.20
6940;DHT22;3509;48.510;9.076;2022-07-24T08:54:40;37.80;38.80
6940;DHT22;3509;48.510;9.076;2022-07-24T08:57:05;37.70;38.30
6940;DHT22;3509;48.510;9.076;2022-07-24T08:59:31;38.00;37.80
6940;DHT22;3509;48.510;9.076;2022-07-24T09:01:57;37.70;38.40
6940;DHT22;3509;48.510;9.076;2022-07-24T09:04:40;38.40;36.80
6940;DHT22;3509;48.510;9.076;2022-07-24T09:07:19;38.70;36.00
6940;DHT22;3509;48.510;9.076;2022-07-24T09:10:07;38.80;36.10
6940;DHT22;3509;48.510;9.076;2022-07-24T09:12:35;39.50;35.70
6940;DHT22;3509;48.510;9.076;2022-07-24T09:15:10;38.90;37.50
6940;DHT22;3509;48.510;9.076;2022-07-24T09:17:36;38.40;36.30
6940;DHT22;3509;48.510;9.076;2022-07-24T09:20:11;38.20;37.00
6940;DHT22;3509;48.510;9.076;2022-07-24T09:22:39;37.80;38.20
6940;DHT22;3509;48.510;9.076;2022-07-24T09:27:45;37.30;39.40
6940;DHT22;3509;48.510;9.076;2022-07-24T09:30:30;37.40;38.70
6940;DHT22;3509;48.510;9.076;2022-07-24T09:33:02;37.20;37.70
6940;DHT22;3509;48.510;9.076;2022-07-24T09:35:39;37.00;39.00
6940;DHT22;3509;48.510;9.076;2022-07-24T09:38:10;36.80;38.80
6940;DHT22;3509;48.510;9.076;2022-07-24T09:40:56;37.60;38.10
6940;DHT22;3509;48.510;9.076;2022-07-24T09:46:05;37.20;39.80
6940;DHT22;3509;48.510;9.076;2022-07-24T09:48:52;37.20;38.90
6940;DHT22;3509;48.510;9.076;2022-07-24T09:51:23;37.90;39.10
6940;DHT22;3509;48.510;9.076;2022-07-24T09:53:54;38.60;37.60
6940;DHT22;3509;48.510;9.076;2022-07-24T09:56:21;38.30;37.90
6940;DHT22;3509;48.510;9.076;2022-07-24T10:01:15;38.60;36.50
6940;DHT22;3509;48.510;9.076;2022-07-24T10:03:42;38.50;38.20
6940;DHT22;3509;48.510;9.076;2022-07-24T10:06:12;37.70;38.40
6940;DHT22;3509;48.510;9.076;2022-07-24T10:08:40;38.00;37.30
6940;DHT22;3509;48.510;9.076;2022-07-24T10:11:07;38.20;37.30
6940;DHT22;3509;48.510;9.076;2022-07-24T10:13:34;37.80;37.10
6940;DHT22;3509;48.510;9.076;2022-07-24T10:19:01;37.60;38.90
6940;DHT22;3509;48.510;9.076;2022-07-24T10:21:37;37.00;38.60
6940;DHT22;3509;48.510;9.076;2022-07-24T10:26:42;37.20;40.20
6940;DHT22;3509;48.510;9.076;2022-07-24T10:29:13;37.10;39.30
6940;DHT22;3509;48.510;9.076;2022-07-24T10:31:50;37.20;39.60
6940;DHT22;3509;48.510;9.076;2022-07-24T10:42:14;38.00;37.50
6940;DHT22;3509;48.510;9.076;2022-07-24T10:44:40;37.90;36.10
6940;DHT22;3509;48.510;9.076;2022-07-24T10:47:11;38.20;36.40
6940;DHT22;3509;48.510;9.076;2022-07-24T10:49:42;37.80;35.00
6940;DHT22;3509;48.510;9.076;2022-07-24T10:52:26;36.80;36.10
6940;DHT22;3509;48.510;9.076;2022-07-24T10:55:24;37.00;39.00
6940;DHT22;3509;48.510;9.076;2022-07-24T11:02:58;37.10;37.30
6940;DHT22;3509;48.510;9.076;2022-07-24T11:05:30;36.90;38.90
6940;DHT22;3509;48.510;9.076;2022-07-24T11:08:12;37.20;37.90
6940;DHT22;3509;48.510;9.076;2022-07-24T11:21:07;37.60;36.00
6940;DHT22;3509;48.510;9.076;2022-07-24T11:23:33;37.60;36.60
6940;DHT22;3509;48.510;9.076;2022-07-24T11:31:41;37.40;38.30
6940;DHT22;3509;48.510;9.076;2022-07-24T11:34:08;37.60;37.00
6940;DHT22;3509;48.510;9.076;2022-07-24T11:36:35;37.90;35.50
6940;DHT22;3509;48.510;9.076;2022-07-24T11:39:03;38.10;34.90
6940;DHT22;3509;48.510;9.076;2022-07-24T11:41:46;37.60;34.70
6940;DHT22;3509;48.510;9.076;2022-07-24T11:44:22;36.90;36.20
6940;DHT22;3509;48.510;9.076;2022-07-24T11:46:48;36.80;37.00
6940;DHT22;3509;48.510;9.076;2022-07-24T11:49:13;36.70;37.40
6940;DHT22;3509;48.510;9.076;2022-07-24T11:51:45;36.50;37.50
6940;DHT22;3509;48.510;9.076;2022-07-24T11:54:12;36.70;37.70
6940;DHT22;3509;48.510;9.076;2022-07-24T11:56:39;36.40;37.10
6940;DHT22;3509;48.510;9.076;2022-07-24T11:59:05;36.40;37.90
6940;DHT22;3509;48.510;9.076;2022-07-24T12:01:31;36.40;38.10
6940;DHT22;3509;48.510;9.076;2022-07-24T12:03:58;36.40;38.10
6940;DHT22;3509;48.510;9.076;2022-07-24T12:06:26;35.50;40.00
6940;DHT22;3509;48.510;9.076;2022-07-24T12:09:05;34.90;40.50
6940;DHT22;3509;48.510;9.076;2022-07-24T12:11:33;34.60;41.70
6940;DHT22;3509;48.510;9.076;2022-07-24T12:14:01;34.00;41.90
6940;DHT22;3509;48.510;9.076;2022-07-24T12:16:27;33.60;43.30
6940;DHT22;3509;48.510;9.076;2022-07-24T12:19:15;33.50;43.10
6940;DHT22;3509;48.510;9.076;2022-07-24T12:21:42;33.00;43.20
6940;DHT22;3509;48.510;9.076;2022-07-24T12:24:09;32.60;44.50
6940;DHT22;3509;48.510;9.076;2022-07-24T12:26:57;32.50;44.10
6940;DHT22;3509;48.510;9.076;2022-07-24T12:29:24;31.90;45.70
6940;DHT22;3509;48.510;9.076;2022-07-24T12:31:53;31.50;48.00
6940;DHT22;3509;48.510;9.076;2022-07-24T12:34:45;31.20;46.60
6940;DHT22;3509;48.510;9.076;2022-07-24T12:37:19;31.00;47.70
6940;DHT22;3509;48.510;9.076;2022-07-24T12:39:49;31.00;47.80
6940;DHT22;3509;48.510;9.076;2022-07-24T12:42:16;31.40;46.60
6940;DHT22;3509;48.510;9.076;2022-07-24T12:44:45;31.60;48.80
6940;DHT22;3509;48.510;9.076;2022-07-24T12:47:11;31.80;46.80
6940;DHT22;3509;48.510;9.076;2022-07-24T12:49:44;31.80;45.90
6940;DHT22;3509;48.510;9.076;2022-07-24T12:52:22;31.80;46.80
6940;DHT22;3509;48.510;9.076;2022-07-24T12:54:50;31.50;49.70
6940;DHT22;3509;48.510;9.076;2022-07-24T12:57:19;31.50;48.80
6940;DHT22;3509;48.510;9.076;2022-07-24T12:59:46;31.50;48.20
6940;DHT22;3509;48.510;9.076;2022-07-24T13:02:22;31.70;46.60
6940;DHT22;3509;48.510;9.076;2022-07-24T13:04:53;31.90;46.10
6940;DHT22;3509;48.510;9.076;2022-07-24T13:07:21;32.00;45.30
6940;DHT22;3509;48.510;9.076;2022-07-24T13:09:48;32.10;45.30
6940;DHT22;3509;48.510;9.076;2022-07-24T13:12:14;32.00;46.30
6940;DHT22;3509;48.510;9.076;2022-07-24T13:14:40;31.60;46.80
6940;DHT22;3509;48.510;9.076;2022-07-24T13:17:08;31.30;46.90
6940;DHT22;3509;48.510;9.076;2022-07-24T13:19:36;31.50;47.60
6940;DHT22;3509;48.510;9.076;2022-07-24T13:22:02;31.60;46.00
6940;DHT22;3509;48.510;9.076;2022-07-24T13:24:28;31.80;46.20
6940;DHT22;3509;48.510;9.076;2022-07-24T13:26:55;31.80;46.80
6940;DHT22;3509;48.510;9.076;2022-07-24T13:29:21;31.50;45.90
6940;DHT22;3509;48.510;9.076;2022-07-24T13:31:47;31.80;46.60
6940;DHT22;3509;48.510;9.076;2022-07-24T13:34:12;31.80;45.50
6940;DHT22;3509;48.510;9.076;2022-07-24T13:36:38;31.90;45.50
6940;DHT22;3509;48.510;9.076;2022-07-24T13:39:05;31.90;45.70
6940;DHT22;3509;48.510;9.076;2022-07-24T13:41:31;31.90;46.60
6940;DHT22;3509;48.510;9.076;2022-07-24T13:43:56;32.20;46.60
6940;DHT22;3509;48.510;9.076;2022-07-24T13:46:22;32.30;46.20
6940;DHT22;3509;48.510;9.076;2022-07-24T13:48:48;32.60;45.00
6940;DHT22;3509;48.510;9.076;2022-07-24T13:51:14;32.50;44.80
6940;DHT22;3509;48.510;9.076;2022-07-24T13:53:40;32.40;45.20
6940;DHT22;3509;48.510;9.076;2022-07-24T13:56:07;32.30;45.70
6940;DHT22;3509;48.510;9.076;2022-07-24T13:58:33;32.30;46.70
6940;DHT22;3509;48.510;9.076;2022-07-24T14:01:02;32.30;46.40
6940;DHT22;3509;48.510;9.076;2022-07-24T14:03:28;32.30;46.00
6940;DHT22;3509;48.510;9.076;2022-07-24T14:05:54;32.50;45.90
6940;DHT22;3509;48.510;9.076;2022-07-24T14:08:19;32.50;44.90
6940;DHT22;3509;48.510;9.076;2022-07-24T14:10:45;32.60;45.30
6940;DHT22;3509;48.510;9.076;2022-07-24T14:13:11;32.40;45.00
6940;DHT22;3509;48.510;9.076;2022-07-24T14:15:37;32.30;45.60
6940;DHT22;3509;48.510;9.076;2022-07-24T14:18:03;32.30;45.70
6940;DHT22;3509;48.510;9.076;2022-07-24T14:20:29;32.20;46.60
6940;DHT22;3509;48.510;9.076;2022-07-24T14:22:54;32.10;45.00
6940;DHT22;3509;48.510;9.076;2022-07-24T14:25:20;31.90;45.60
6940;DHT22;3509;48.510;9.076;2022-07-24T14:27:46;31.90;45.80
6940;DHT22;3509;48.510;9.076;2022-07-24T14:30:12;32.10;44.80
6940;DHT22;3509;48.510;9.076;2022-07-24T14:32:38;32.20;44.60
6940;DHT22;3509;48.510;9.076;2022-07-24T14:35:04;32.10;46.30
6940;DHT22;3509;48.510;9.076;2022-07-24T14:37:35;31.80;46.90
6940;DHT22;3509;48.510;9.076;2022-07-24T14:40:03;32.00;46.00
6940;DHT22;3509;48.510;9.076;2022-07-24T14:42:29;32.00;47.30
6940;DHT22;3509;48.510;9.076;2022-07-24T14:44:55;32.20;47.10
6940;DHT22;3509;48.510;9.076;2022-07-24T14:47:21;32.30;48.00
6940;DHT22;3509;48.510;9.076;2022-07-24T14:49:47;32.30;46.80
6940;DHT22;3509;48.510;9.076;2022-07-24T14:52:12;32.20;46.50
6940;DHT22;3509;48.510;9.076;2022-07-24T14:54:39;32.00;47.20
6940;DHT22;3509;48.510;9.076;2022-07-24T14:57:05;32.00;47.20
6940;DHT22;3509;48.510;9.076;2022-07-24T14:59:32;31.80;47.30
6940;DHT22;3509;48.510;9.076;2022-07-24T15:01:58;31.80;47.60
6940;DHT22;3509;48.510;9.076;2022-07-24T15:04:23;31.40;47.90
6940;DHT22;3509;48.510;9.076;2022-07-24T15:06:49;31.10;49.00
6940;DHT22;3509;48.510;9.076;2022-07-24T15:09:15;30.90;49.80
6940;DHT22;3509;48.510;9.076;2022-07-24T15:11:40;30.60;50.50
6940;DHT22;3509;48.510;9.076;2022-07-24T15:14:06;30.60;49.50
6940;DHT22;3509;48.510;9.076;2022-07-24T15:16:32;30.80;49.30
6940;DHT22;3509;48.510;9.076;2022-07-24T15:18:57;30.90;49.10
6940;DHT22;3509;48.510;9.076;2022-07-24T15:21:23;31.00;49.00
6940;DHT22;3509;48.510;9.076;2022-07-24T15:23:49;31.00;49.10
6940;DHT22;3509;48.510;9.076;2022-07-24T15:26:14;31.00;49.30
6940;DHT22;3509;48.510;9.076;2022-07-24T15:28:40;31.10;48.60
6940;DHT22;3509;48.510;9.076;2022-07-24T15:31:06;31.20;48.60
6940;DHT22;3509;48.510;9.076;2022-07-24T15:33:31;31.30;48.60
6940;DHT22;3509;48.510;9.076;2022-07-24T15:35:57;31.30;48.90
6940;DHT22;3509;48.510;9.076;2022-07-24T15:38:22;31.20;49.60
6940;DHT22;3509;48.510;9.076;2022-07-24T15:40:49;31.10;49.70
6940;DHT22;3509;48.510;9.076;2022-07-24T15:43:15;31.00;50.40
6940;DHT22;3509;48.510;9.076;2022-07-24T15:45:40;30.90;49.50
6940;DHT22;3509;48.510;9.076;2022-07-24T15:48:06;30.80;50.20
6940;DHT22;3509;48.510;9.076;2022-07-24T15:50:32;30.80;50.40
6940;DHT22;3509;48.510;9.076;2022-07-24T15:52:57;30.70;50.40
6940;DHT22;3509;48.510;9.076;2022-07-24T15:55:23;30.80;51.10
6940;DHT22;3509;48.510;9.076;2022-07-24T15:57:49;30.80;51.60
6940;DHT22;3509;48.510;9.076;2022-07-24T16:00:16;30.80;51.30
6940;DHT22;3509;48.510;9.076;2022-07-24T16:02:42;30.70;50.50
6940;DHT22;3509;48.510;9.076;2022-07-24T16:05:08;30.70;50.90
6940;DHT22;3509;48.510;9.076;2022-07-24T16:07:33;30.50;50.70
6940;DHT22;3509;48.510;9.076;2022-07-24T16:09:59;30.60;51.60
6940;DHT22;3509;48.510;9.076;2022-07-24T16:12:25;30.60;50.50
6940;DHT22;3509;48.510;9.076;2022-07-24T16:14:51;30.70;50.10
6940;DHT22;3509;48.510;9.076;2022-07-24T16:17:18;30.70;51.40
6940;DHT22;3509;48.510;9.076;2022-07-24T16:19:44;30.70;50.20
6940;DHT22;3509;48.510;9.076;2022-07-24T16:22:10;30.70;50.30
6940;DHT22;3509;48.510;9.076;2022-07-24T16:24:36;30.60;50.00
6940;DHT22;3509;48.510;9.076;2022-07-24T16:27:02;30.50;51.00
6940;DHT22;3509;48.510;9.076;2022-07-24T16:29:28;30.50;52.30
6940;DHT22;3509;48.510;9.076;2022-07-24T16:31:54;30.30;52.10
6940;DHT22;3509;48.510;9.076;2022-07-24T16:34:19;30.30;51.80
6940;DHT22;3509;48.510;9.076;2022-07-24T16:36:45;30.30;51.80
6940;DHT22;3509;48.510;9.076;2022-07-24T16:39:11;30.30;51.60
6940;DHT22;3509;48.510;9.076;2022-07-24T16:41:37;30.30;51.80
6940;DHT22;3509;48.510;9.076;2022-07-24T16:44:03;30.30;51.80